Terminal Aerodrome Forecast
Issued by NWS

Home | Current Version | Previous Version | Text Only | Print | Product List | Glossary On
Versions: 1 2 3 4 5 6 7 8 9 10
096
FTPA31 PHFO 232326
TAFSTU
TAF
NSTU 232326Z 2400/2424 10008KT P6SM VCSH FEW020 SCT040 SCT120
      AMD NOT SKED=

USA.gov is the U.S. government's official web portal to all federal, state and local government web resources and services.